Terminal Aerodrome Forecast
Issued by NWS

Home | Current Version | Previous Version | Text Only | Print | Product List | Glossary On
Versions: 1 2 3 4 5 6 7 8 9 10 11 12 13 14 15 16
000
FTUS43 KMPX 220800 AAB
TAFRNH
TAF AMD
KRNH 220839Z 2209/2306 VRB03KT 6SM BR SCT005
      TEMPO 2209/2212 2SM BR BKN005
     FM221300 25006KT P6SM SKC
     FM230100 20002KT P6SM SKC=

USA.gov is the U.S. government's official web portal to all federal, state and local government web resources and services.